Terminal Aerodrome Forecast
Issued by NWS

Home | Current Version | Previous Version | Text Only | Print | Product List | Glossary On
Versions: 1 2 3 4 5 6 7 8 9 10 11 12 13 14 15
000
FTAK31 PAJN 272007 CCC
TAFAJN
TAF COR
PAJN 272007Z 2718/2818 08005KT P6SM VCSH BKN028 OVC050
      TEMPO 2720/2723 VRB05KT 3SM -RA BR FEW004 OVC035
     FM280000 08004KT P6SM VCSH SCT025 OVC050
     FM280900 08004KT P6SM VCSH OVC025=

USA.gov is the U.S. government's official web portal to all federal, state and local government web resources and services.